createdAt,value
2018-12-08T00:00:05.478Z,6.80
2018-12-08T00:02:34.468Z,6.70
2018-12-08T00:05:03.530Z,6.70
2018-12-08T00:07:32.408Z,6.80
2018-12-08T00:10:01.520Z,6.90
2018-12-08T00:12:30.708Z,6.90
2018-12-08T00:14:59.743Z,6.80
2018-12-08T00:17:29.573Z,6.80
2018-12-08T00:19:58.436Z,6.90
2018-12-08T00:22:27.397Z,6.90
2018-12-08T00:24:56.311Z,7.00
2018-12-08T00:27:25.259Z,7.00
2018-12-08T00:29:54.367Z,7.00
2018-12-08T00:32:24.395Z,7.00
2018-12-08T00:34:53.598Z,6.90
2018-12-08T00:37:22.751Z,6.80
2018-12-08T00:39:51.717Z,6.80
2018-12-08T00:42:20.513Z,6.80
2018-12-08T00:44:50.438Z,6.80
2018-12-08T00:47:19.409Z,6.70
2018-12-08T00:49:48.451Z,6.70
2018-12-08T00:52:17.526Z,5.50
2018-12-08T00:54:46.631Z,6.80
2018-12-08T00:57:15.459Z,6.90
2018-12-08T00:59:44.381Z,6.90
2018-12-08T01:02:13.239Z,6.90
2018-12-08T01:04:42.257Z,7.00
2018-12-08T01:07:12.219Z,6.90
2018-12-08T01:09:41.003Z,6.90
2018-12-08T01:12:09.878Z,7.00
2018-12-08T01:14:39.114Z,7.00
2018-12-08T01:17:08.035Z,7.00
2018-12-08T01:19:36.999Z,7.00
2018-12-08T01:22:06.649Z,7.10
2018-12-08T01:24:35.727Z,7.10
2018-12-08T01:27:04.760Z,7.10
2018-12-08T01:29:33.542Z,7.10
2018-12-08T01:32:02.395Z,7.10
2018-12-08T01:34:32.133Z,7.10
2018-12-08T01:37:01.034Z,7.10
2018-12-08T01:39:33.222Z,7.20
2018-12-08T01:42:02.168Z,7.20
2018-12-08T01:44:31.073Z,8.10
2018-12-08T01:47:00.031Z,7.20
2018-12-08T01:49:29.553Z,7.20
2018-12-08T01:51:58.920Z,7.20
2018-12-08T01:54:27.858Z,7.20
2018-12-08T01:56:56.764Z,7.20
2018-12-08T01:59:25.683Z,7.10
2018-12-08T02:01:54.604Z,7.10
2018-12-08T02:04:23.519Z,7.10
2018-12-08T02:06:52.498Z,7.10
2018-12-08T02:09:21.367Z,7.20
2018-12-08T02:11:50.354Z,7.20
2018-12-08T02:14:19.357Z,7.10
2018-12-08T02:16:48.436Z,7.10
2018-12-08T02:19:17.570Z,7.10
2018-12-08T02:21:46.459Z,7.20
2018-12-08T02:24:16.196Z,7.30
2018-12-08T02:26:45.094Z,7.20
2018-12-08T02:29:13.886Z,7.20
2018-12-08T02:31:42.971Z,7.20
2018-12-08T02:34:11.897Z,7.30
2018-12-08T02:36:40.942Z,7.30
2018-12-08T02:39:09.899Z,7.30
2018-12-08T02:41:38.738Z,7.40
2018-12-08T02:44:07.660Z,7.30
2018-12-08T02:46:36.631Z,7.30
2018-12-08T02:49:05.763Z,7.30
2018-12-08T02:56:39.452Z,7.40
2018-12-08T02:59:08.354Z,7.30
2018-12-08T03:01:37.368Z,7.30
2018-12-08T03:04:06.311Z,7.30
2018-12-08T03:06:35.156Z,7.30
2018-12-08T03:09:07.497Z,7.40
2018-12-08T03:11:36.409Z,7.30
2018-12-08T03:14:05.219Z,7.30
2018-12-08T03:16:34.119Z,7.30
2018-12-08T03:19:02.925Z,7.30
2018-12-08T03:21:31.906Z,7.30
2018-12-08T03:24:00.761Z,7.40
2018-12-08T03:26:29.544Z,7.30
2018-12-08T03:28:58.431Z,7.30
2018-12-08T03:31:27.357Z,7.30
2018-12-08T03:33:56.280Z,7.30
2018-12-08T03:36:26.470Z,7.40
2018-12-08T03:38:55.438Z,7.40
2018-12-08T03:41:24.422Z,7.50
2018-12-08T03:43:53.386Z,7.40
2018-12-08T03:46:22.390Z,7.40
2018-12-08T03:48:51.416Z,7.50
2018-12-08T03:51:20.515Z,7.60
2018-12-08T03:53:49.521Z,7.60
2018-12-08T03:56:18.653Z,7.60
2018-12-08T03:58:47.699Z,7.60
2018-12-08T04:01:16.749Z,7.60
2018-12-08T04:03:45.761Z,7.60
2018-12-08T04:06:14.711Z,7.60
2018-12-08T04:08:44.603Z,7.60
2018-12-08T04:11:13.633Z,7.60
2018-12-08T04:13:42.709Z,7.60
2018-12-08T04:16:11.771Z,7.60
2018-12-08T04:18:40.729Z,7.60
2018-12-08T04:21:09.770Z,7.70
2018-12-08T04:23:38.704Z,7.70
2018-12-08T04:26:07.675Z,7.80
2018-12-08T04:28:36.695Z,7.80
2018-12-08T04:31:05.640Z,7.80
2018-12-08T04:33:34.496Z,7.80
2018-12-08T04:36:03.391Z,7.80
2018-12-08T04:38:32.269Z,7.80
2018-12-08T04:41:01.128Z,7.80
2018-12-08T04:43:30.016Z,7.80
2018-12-08T04:45:59.079Z,7.60
2018-12-08T04:48:27.968Z,7.60
2018-12-08T04:50:56.802Z,7.50
2018-12-08T04:53:25.616Z,7.40
2018-12-08T04:55:54.580Z,7.40
2018-12-08T04:58:23.425Z,7.40
2018-12-08T05:00:52.332Z,7.50
2018-12-08T05:03:21.229Z,7.50
2018-12-08T05:05:50.070Z,7.50
2018-12-08T05:08:18.988Z,7.50
2018-12-08T05:10:47.991Z,7.60
2018-12-08T05:13:16.868Z,7.60
2018-12-08T05:15:45.875Z,7.60
2018-12-08T05:18:14.752Z,7.60
2018-12-08T05:20:43.615Z,7.70
2018-12-08T05:23:12.465Z,7.60
2018-12-08T05:25:41.555Z,7.60
2018-12-08T05:28:10.654Z,7.50
2018-12-08T05:30:39.536Z,7.50
2018-12-08T05:33:08.474Z,7.50
2018-12-08T05:35:37.486Z,7.40
2018-12-08T05:38:06.388Z,7.40
2018-12-08T05:40:35.580Z,7.40
2018-12-08T05:43:04.790Z,7.40
2018-12-08T05:45:33.783Z,7.40
2018-12-08T05:48:02.757Z,7.40
2018-12-08T05:50:31.579Z,7.40
2018-12-08T05:53:01.040Z,7.40
2018-12-08T05:55:29.811Z,7.30
2018-12-08T05:57:59.727Z,7.40
2018-12-08T06:00:28.722Z,7.40
2018-12-08T06:02:57.663Z,7.30
2018-12-08T06:05:26.567Z,7.40
2018-12-08T06:07:55.361Z,7.40
2018-12-08T06:10:24.193Z,7.40
2018-12-08T06:12:53.044Z,7.40
2018-12-08T06:15:21.987Z,7.40
2018-12-08T06:17:50.912Z,7.30
2018-12-08T06:20:20.008Z,7.20
2018-12-08T06:22:48.863Z,7.20
2018-12-08T06:25:26.767Z,7.20
2018-12-08T06:28:07.123Z,7.20
2018-12-08T06:30:35.924Z,7.20
2018-12-08T06:33:04.800Z,7.20
2018-12-08T06:35:34.762Z,7.20
2018-12-08T06:38:04.704Z,7.30
2018-12-08T06:40:33.596Z,7.40
2018-12-08T06:43:02.416Z,7.40
2018-12-08T06:45:31.266Z,7.30
2018-12-08T06:48:00.213Z,7.40
2018-12-08T06:50:29.221Z,7.40
2018-12-08T06:52:58.079Z,7.40
2018-12-08T06:55:26.939Z,7.40
2018-12-08T06:57:55.708Z,7.40
2018-12-08T07:00:24.620Z,7.40
2018-12-08T07:02:53.538Z,7.50
2018-12-08T07:05:22.314Z,7.50
2018-12-08T07:07:51.254Z,7.50
2018-12-08T07:10:20.183Z,7.50
2018-12-08T07:12:48.977Z,7.50
2018-12-08T07:15:17.862Z,7.50
2018-12-08T07:17:46.671Z,7.50
2018-12-08T07:20:15.673Z,7.60
2018-12-08T07:22:44.478Z,7.60
2018-12-08T07:25:13.429Z,7.60
2018-12-08T07:27:42.321Z,7.60
2018-12-08T07:30:11.529Z,7.60
2018-12-08T07:32:40.418Z,7.60
2018-12-08T07:35:09.706Z,7.70
2018-12-08T07:37:38.467Z,7.60
2018-12-08T07:40:08.751Z,7.60
2018-12-08T07:42:37.691Z,7.60
2018-12-08T07:45:07.339Z,7.60
2018-12-08T07:47:36.291Z,7.60
2018-12-08T07:50:07.860Z,7.50
2018-12-08T07:52:36.691Z,7.40
2018-12-08T07:55:06.730Z,7.30
2018-12-08T07:57:35.791Z,7.40
2018-12-08T08:00:08.803Z,7.30
2018-12-08T08:02:38.096Z,7.20
2018-12-08T08:05:08.886Z,7.20
2018-12-08T08:07:37.958Z,7.20
2018-12-08T08:10:09.657Z,7.30
2018-12-08T08:12:39.048Z,7.30
2018-12-08T08:15:09.725Z,7.30
2018-12-08T08:17:38.654Z,7.20
2018-12-08T08:20:10.043Z,7.20
2018-12-08T08:22:39.214Z,7.30
2018-12-08T08:25:10.168Z,7.20
2018-12-08T08:27:40.064Z,7.20
2018-12-08T08:30:10.958Z,7.40
2018-12-08T08:32:40.723Z,7.40
2018-12-08T08:35:09.874Z,7.40
2018-12-08T08:37:38.726Z,7.40
2018-12-08T08:40:09.929Z,7.40
2018-12-08T08:42:38.848Z,7.40
2018-12-08T08:45:08.419Z,7.40
2018-12-08T08:47:37.375Z,7.40
2018-12-08T08:50:08.944Z,7.50
2018-12-08T08:52:37.842Z,7.50
2018-12-08T08:55:07.033Z,7.50
2018-12-08T08:57:35.899Z,7.60
2018-12-08T09:00:06.768Z,7.60
2018-12-08T09:02:36.895Z,7.60
2018-12-08T09:05:06.765Z,7.60
2018-12-08T09:07:36.724Z,7.60
2018-12-08T09:10:11.952Z,7.50
2018-12-08T09:12:41.044Z,7.50
2018-12-08T09:15:10.106Z,7.40
2018-12-08T09:17:39.092Z,7.40
2018-12-08T09:20:10.380Z,7.40
2018-12-08T09:22:39.647Z,7.50
2018-12-08T09:25:09.669Z,7.50
2018-12-08T09:27:38.612Z,7.60
2018-12-08T09:30:10.213Z,7.70
2018-12-08T09:32:39.123Z,7.80
2018-12-08T09:35:08.274Z,7.80
2018-12-08T09:37:37.485Z,7.70
2018-12-08T09:40:07.544Z,7.70
2018-12-08T09:42:36.515Z,7.70
2018-12-08T09:45:05.720Z,7.70
2018-12-08T09:47:34.575Z,7.70
2018-12-08T09:50:04.087Z,7.70
2018-12-08T09:52:33.116Z,7.80
2018-12-08T09:55:01.981Z,7.80
2018-12-08T09:57:30.968Z,7.80
2018-12-08T09:59:59.885Z,7.70
2018-12-08T10:02:28.726Z,7.70
2018-12-08T10:04:57.575Z,7.70
2018-12-08T10:07:26.840Z,7.70
2018-12-08T10:09:57.180Z,7.60
2018-12-08T10:12:26.180Z,7.60
2018-12-08T10:14:55.012Z,7.60
2018-12-08T10:17:25.008Z,7.60
2018-12-08T10:19:53.909Z,7.60
2018-12-08T10:22:22.870Z,7.70
2018-12-08T10:24:51.856Z,7.70
2018-12-08T10:27:21.221Z,7.70
2018-12-08T10:29:51.430Z,7.70
2018-12-08T10:32:20.413Z,7.60
2018-12-08T10:34:50.306Z,7.60
2018-12-08T10:37:19.315Z,7.70
2018-12-08T10:39:48.419Z,7.70
2018-12-08T10:42:17.256Z,7.80
2018-12-08T10:44:46.214Z,7.70
2018-12-08T10:47:15.219Z,7.70
2018-12-08T10:49:44.081Z,7.80
2018-12-08T10:52:12.946Z,7.80
2018-12-08T10:54:43.683Z,7.80
2018-12-08T10:57:13.647Z,7.80
2018-12-08T10:59:42.711Z,7.90
2018-12-08T11:02:17.954Z,8.00
2018-12-08T11:04:47.000Z,8.00
2018-12-08T11:07:15.960Z,8.00
2018-12-08T11:09:45.008Z,8.00
2018-12-08T11:12:13.874Z,8.00
2018-12-08T11:14:44.334Z,8.00
2018-12-08T11:17:13.192Z,8.00
2018-12-08T11:19:42.263Z,8.00
2018-12-08T11:22:11.263Z,8.00
2018-12-08T11:24:40.448Z,8.10
2018-12-08T11:27:10.506Z,8.10
2018-12-08T11:29:39.428Z,8.20
2018-12-08T11:32:09.256Z,8.20
2018-12-08T11:34:38.433Z,8.20
2018-12-08T11:37:07.617Z,8.30
2018-12-08T11:39:36.533Z,8.30
2018-12-08T11:42:05.484Z,8.30
2018-12-08T11:44:35.819Z,8.40
2018-12-08T11:47:04.713Z,8.60
2018-12-08T11:49:34.695Z,8.60
2018-12-08T11:52:03.601Z,8.60
2018-12-08T11:54:32.449Z,8.30
2018-12-08T11:57:01.498Z,8.60
2018-12-08T11:59:30.416Z,8.70
2018-12-08T12:02:00.429Z,8.60
2018-12-08T12:04:29.555Z,8.50
2018-12-08T12:06:58.450Z,8.60
2018-12-08T12:09:27.527Z,8.60
2018-12-08T12:11:56.527Z,8.60
2018-12-08T12:14:48.557Z,8.70
2018-12-08T12:17:19.606Z,8.70
2018-12-08T12:19:48.643Z,8.60
2018-12-08T12:22:17.777Z,8.50
2018-12-08T12:24:46.911Z,8.40
2018-12-08T12:27:15.788Z,8.40
2018-12-08T12:29:45.288Z,8.30
2018-12-08T12:32:14.921Z,8.30
2018-12-08T12:34:44.139Z,8.40
2018-12-08T12:37:13.108Z,8.40
2018-12-08T12:39:42.065Z,8.40
2018-12-08T12:42:10.940Z,8.40
2018-12-08T12:44:40.312Z,8.60
2018-12-08T12:47:09.263Z,8.70
2018-12-08T12:49:38.130Z,8.70
2018-12-08T12:52:07.112Z,8.80
2018-12-08T12:54:35.957Z,8.90
2018-12-08T12:57:04.823Z,8.80
2018-12-08T12:59:33.653Z,8.80
2018-12-08T13:02:03.000Z,8.90
2018-12-08T13:04:31.888Z,9.00
2018-12-08T13:07:00.920Z,9.00
2018-12-08T13:09:30.268Z,8.90
2018-12-08T13:12:00.199Z,8.90
2018-12-08T13:14:30.674Z,8.80
2018-12-08T13:16:59.863Z,8.90
2018-12-08T13:19:28.810Z,8.80
2018-12-08T13:21:57.639Z,8.80
2018-12-08T13:24:31.477Z,8.80
2018-12-08T13:27:00.658Z,8.80
2018-12-08T13:29:29.731Z,8.80
2018-12-08T13:31:58.619Z,8.90
2018-12-08T13:34:28.840Z,8.90
2018-12-08T13:36:57.875Z,8.90
2018-12-08T13:39:26.868Z,8.80
2018-12-08T13:41:55.706Z,8.90
2018-12-08T13:44:35.735Z,8.90
2018-12-08T13:47:04.721Z,8.90
2018-12-08T13:49:35.817Z,8.90
2018-12-08T13:52:04.864Z,8.80
2018-12-08T13:54:45.080Z,8.80
2018-12-08T13:57:14.002Z,8.70
2018-12-08T14:04:55.072Z,8.70
2018-12-08T14:07:26.236Z,8.70
2018-12-08T14:09:55.265Z,8.70
2018-12-08T14:12:24.343Z,8.80
2018-12-08T14:14:53.481Z,8.80
2018-12-08T14:17:22.940Z,8.90
2018-12-08T14:19:51.858Z,9.00
2018-12-08T14:22:20.802Z,8.90
2018-12-08T14:24:49.834Z,8.90
2018-12-08T14:27:18.810Z,8.90
2018-12-08T14:29:47.692Z,8.80
2018-12-08T14:32:16.531Z,8.60
2018-12-08T14:34:45.475Z,8.50
2018-12-08T14:37:14.466Z,8.50
2018-12-08T14:39:43.312Z,8.40
2018-12-08T14:42:12.236Z,8.40
2018-12-08T14:44:41.076Z,8.40
2018-12-08T14:47:10.085Z,8.40
2018-12-08T14:49:38.928Z,8.40
2018-12-08T14:52:07.862Z,8.40
2018-12-08T14:54:36.728Z,8.40
2018-12-08T14:57:05.642Z,8.40
2018-12-08T14:59:34.500Z,8.40
2018-12-08T15:02:03.420Z,8.40
2018-12-08T15:04:32.411Z,8.40
2018-12-08T15:07:01.275Z,8.40
2018-12-08T15:09:30.198Z,8.50
2018-12-08T15:11:59.077Z,8.50
2018-12-08T15:14:28.030Z,8.60
2018-12-08T15:16:57.280Z,8.60
2018-12-08T15:22:09.486Z,8.70
2018-12-08T15:24:38.353Z,8.70
2018-12-08T15:27:07.502Z,8.70
2018-12-08T15:29:36.372Z,8.70
2018-12-08T15:32:05.191Z,8.70
2018-12-08T15:34:34.118Z,8.70
2018-12-08T15:37:02.944Z,8.80
2018-12-08T15:39:31.916Z,8.80
2018-12-08T15:42:00.753Z,8.80
2018-12-08T15:44:29.984Z,8.80
2018-12-08T15:46:58.919Z,8.90
2018-12-08T15:49:28.305Z,8.80
2018-12-08T15:51:57.840Z,8.80
2018-12-08T15:54:28.209Z,8.80
2018-12-08T15:56:57.168Z,8.80
2018-12-08T15:59:26.067Z,8.80
2018-12-08T16:01:54.947Z,8.80
2018-12-08T16:04:23.989Z,8.80
2018-12-08T16:06:52.964Z,8.80
2018-12-08T16:09:21.800Z,8.70
2018-12-08T16:11:50.687Z,8.70
2018-12-08T16:14:19.672Z,8.70
2018-12-08T16:16:49.486Z,8.80
2018-12-08T16:19:18.331Z,8.80
2018-12-08T16:21:48.325Z,8.80
2018-12-08T16:24:17.404Z,8.80
2018-12-08T16:26:46.296Z,8.90
2018-12-08T16:29:15.120Z,8.90
2018-12-08T16:31:44.071Z,8.90
2018-12-08T16:34:12.948Z,8.90
2018-12-08T16:36:42.292Z,8.90
2018-12-08T16:39:12.389Z,8.90
2018-12-08T16:41:41.434Z,9.10
2018-12-08T16:44:10.312Z,9.10
2018-12-08T16:46:39.177Z,9.10
2018-12-08T16:49:08.201Z,9.10
2018-12-08T16:51:41.946Z,9.00
2018-12-08T16:54:10.770Z,8.90
2018-12-08T16:56:39.715Z,8.90
2018-12-08T16:59:08.828Z,8.90
2018-12-08T17:01:37.840Z,8.90
2018-12-08T17:04:06.697Z,9.00
2018-12-08T17:06:36.220Z,9.10
2018-12-08T17:09:05.753Z,9.10
2018-12-08T17:11:34.598Z,9.10
2018-12-08T17:14:03.908Z,9.10
2018-12-08T17:16:33.313Z,9.10
2018-12-08T17:19:02.339Z,9.10
2018-12-08T17:21:33.411Z,9.20
2018-12-08T17:24:02.406Z,9.20
2018-12-08T17:26:32.518Z,9.20
2018-12-08T17:29:01.399Z,9.20
2018-12-08T17:31:30.339Z,9.30
2018-12-08T17:34:00.693Z,9.30
2018-12-08T17:36:29.554Z,9.30
2018-12-08T17:38:58.452Z,9.30
2018-12-08T17:41:27.804Z,9.30
2018-12-08T17:43:56.704Z,9.30
2018-12-08T17:46:26.726Z,9.30
2018-12-08T17:48:55.672Z,9.30
2018-12-08T17:51:24.662Z,9.40
2018-12-08T17:53:53.607Z,9.40
2018-12-08T17:56:22.646Z,9.40
2018-12-08T17:58:51.548Z,9.40
2018-12-08T18:06:25.883Z,9.30
2018-12-08T18:08:54.728Z,9.30
2018-12-08T18:11:23.761Z,9.20
2018-12-08T18:13:52.730Z,9.10
2018-12-08T18:16:21.696Z,9.10
2018-12-08T18:18:50.558Z,9.10
2018-12-08T18:21:19.530Z,9.10
2018-12-08T18:23:48.482Z,9.00
2018-12-08T18:26:17.406Z,9.00
2018-12-08T18:28:46.451Z,9.00
2018-12-08T18:31:15.473Z,9.00
2018-12-08T18:33:45.350Z,9.00
2018-12-08T18:36:14.728Z,9.00
2018-12-08T18:38:43.684Z,9.00
2018-12-08T18:41:12.553Z,9.00
2018-12-08T18:43:41.480Z,9.00
2018-12-08T18:46:10.340Z,9.00
2018-12-08T18:48:39.294Z,9.10
2018-12-08T18:51:09.344Z,9.10
2018-12-08T18:53:38.214Z,9.20
2018-12-08T18:56:07.099Z,9.20
2018-12-08T18:58:36.070Z,9.20
2018-12-08T19:01:05.277Z,9.30
2018-12-08T19:03:34.389Z,9.30
2018-12-08T19:06:03.399Z,9.30
2018-12-08T19:08:32.340Z,9.30
2018-12-08T19:11:01.445Z,9.40
2018-12-08T19:13:30.459Z,9.40
2018-12-08T19:15:59.348Z,9.40
2018-12-08T19:18:29.289Z,9.40
2018-12-08T19:20:58.172Z,9.30
2018-12-08T19:23:27.214Z,9.30
2018-12-08T19:25:56.096Z,9.20
2018-12-08T19:28:25.948Z,9.20
2018-12-08T19:30:54.840Z,9.10
2018-12-08T19:33:23.757Z,9.10
2018-12-08T19:35:52.659Z,9.00
2018-12-08T19:38:21.454Z,9.00
2018-12-08T19:40:51.244Z,9.00
2018-12-08T19:43:24.312Z,9.00
2018-12-08T19:45:53.351Z,10.60
2018-12-08T19:48:22.396Z,9.10
2018-12-08T19:50:51.305Z,9.10
2018-12-08T19:53:20.509Z,9.00
2018-12-08T19:55:49.356Z,9.10
2018-12-08T19:58:18.242Z,9.10
2018-12-08T20:00:47.220Z,9.10
2018-12-08T20:03:16.166Z,9.20
2018-12-08T20:05:45.118Z,9.20
2018-12-08T20:08:15.258Z,9.20
2018-12-08T20:10:44.211Z,9.20
2018-12-08T20:13:13.102Z,9.20
2018-12-08T20:15:42.059Z,9.20
2018-12-08T20:18:11.063Z,9.10
2018-12-08T20:20:40.214Z,9.10
2018-12-08T20:23:09.178Z,9.10
2018-12-08T20:25:38.158Z,9.10
2018-12-08T20:28:07.085Z,9.20
2018-12-08T20:30:36.480Z,9.20
2018-12-08T20:33:05.398Z,9.20
2018-12-08T20:35:34.241Z,9.30
2018-12-08T20:38:03.155Z,9.20
2018-12-08T20:40:32.022Z,9.30
2018-12-08T20:43:00.812Z,9.30
2018-12-08T20:45:29.769Z,9.20
2018-12-08T20:47:58.711Z,9.30
2018-12-08T20:50:27.572Z,9.30
2018-12-08T20:52:56.544Z,9.30
2018-12-08T20:55:27.818Z,9.30
2018-12-08T20:57:56.718Z,9.30
2018-12-08T21:00:25.653Z,9.30
2018-12-08T21:02:54.476Z,9.30
2018-12-08T21:05:23.496Z,9.30
2018-12-08T21:07:52.396Z,9.30
2018-12-08T21:10:21.246Z,9.30
2018-12-08T21:12:50.147Z,9.30
2018-12-08T21:15:18.992Z,9.30
2018-12-08T21:17:47.945Z,9.40
2018-12-08T21:20:16.903Z,9.40
2018-12-08T21:22:45.813Z,9.40
2018-12-08T21:25:14.763Z,9.40
2018-12-08T21:27:43.695Z,9.40
2018-12-08T21:30:12.658Z,9.30
2018-12-08T21:32:41.709Z,9.30
2018-12-08T21:35:10.561Z,9.20
2018-12-08T21:37:39.578Z,9.20
2018-12-08T21:40:14.607Z,9.20
2018-12-08T21:42:43.519Z,9.20
2018-12-08T21:45:12.337Z,9.20
2018-12-08T21:52:48.166Z,9.20
2018-12-08T21:55:17.119Z,9.20
2018-12-08T21:57:45.949Z,9.20
2018-12-08T22:00:14.939Z,9.20
2018-12-08T22:02:43.914Z,9.10
2018-12-08T22:05:13.843Z,9.00
2018-12-08T22:07:43.051Z,9.00
2018-12-08T22:10:14.066Z,9.00
2018-12-08T22:12:46.568Z,9.00
2018-12-08T22:15:15.600Z,9.10
2018-12-08T22:17:45.289Z,9.10
2018-12-08T22:20:15.596Z,9.10
2018-12-08T22:22:44.672Z,9.10
2018-12-08T22:25:14.446Z,9.20
2018-12-08T22:27:44.441Z,9.30
2018-12-08T22:30:13.474Z,9.30
2018-12-08T22:32:42.842Z,9.50
2018-12-08T22:35:12.957Z,9.50
2018-12-08T22:37:42.101Z,9.60
2018-12-08T22:40:11.381Z,9.50
2018-12-08T22:42:40.369Z,9.50
2018-12-08T22:45:10.454Z,9.60
2018-12-08T22:47:39.344Z,9.50
2018-12-08T22:50:08.428Z,9.50
2018-12-08T22:52:38.175Z,9.60
2018-12-08T22:55:07.359Z,9.60
2018-12-08T22:57:36.594Z,9.70
2018-12-08T23:00:16.776Z,9.70
2018-12-08T23:02:47.823Z,9.70
2018-12-08T23:05:16.938Z,9.80
2018-12-08T23:07:46.025Z,9.80
2018-12-08T23:10:15.121Z,9.80
2018-12-08T23:12:46.360Z,9.80
2018-12-08T23:15:15.310Z,9.80
2018-12-08T23:17:44.471Z,9.80
2018-12-08T23:20:13.609Z,9.90
2018-12-08T23:22:42.697Z,10.00
2018-12-08T23:25:11.885Z,10.00
2018-12-08T23:27:41.065Z,9.90
2018-12-08T23:30:11.401Z,10.00
2018-12-08T23:32:40.321Z,10.00
2018-12-08T23:35:09.488Z,9.90
2018-12-08T23:37:39.472Z,9.60
2018-12-08T23:40:08.638Z,9.50
2018-12-08T23:42:37.695Z,9.40
2018-12-08T23:45:06.893Z,9.40
2018-12-08T23:47:36.248Z,9.40
2018-12-08T23:50:07.247Z,9.40
2018-12-08T23:52:36.373Z,9.40
2018-12-08T23:55:06.122Z,9.20
2018-12-08T23:57:35.169Z,9.20
